createdAt,value
2018-07-19T09:47:50.530Z,11.20
2018-07-19T09:50:21.188Z,10.83
2018-07-19T09:52:51.985Z,10.63
2018-07-19T09:55:22.139Z,11.53
2018-07-19T09:57:51.966Z,10.73
2018-07-19T10:00:31.669Z,12.03
2018-07-19T10:03:02.118Z,13.13
2018-07-19T10:05:32.203Z,12.23
2018-07-19T10:08:02.504Z,12.63
2018-07-19T10:10:33.038Z,11.97
2018-07-19T10:13:02.853Z,13.00
2018-07-19T10:15:33.107Z,13.45
2018-07-19T10:18:03.101Z,12.73
2018-07-19T10:20:32.560Z,13.50
2018-07-19T10:23:03.440Z,13.13
2018-07-19T10:25:32.943Z,13.28
2018-07-19T10:28:03.450Z,13.75
2018-07-19T10:30:33.520Z,14.25
2018-07-19T10:33:03.170Z,13.50
2018-07-19T10:35:33.822Z,13.30
2018-07-19T10:38:03.932Z,14.13
2018-07-19T10:40:40.752Z,13.58
2018-07-19T10:43:10.716Z,12.55
2018-07-19T10:45:41.052Z,13.50
2018-07-19T10:48:10.708Z,12.68
2018-07-19T10:50:40.196Z,13.10
2018-07-19T10:53:10.517Z,12.35
2018-07-19T10:55:40.931Z,12.35
2018-07-19T10:58:11.372Z,11.85
2018-07-19T11:00:41.205Z,11.85
2018-07-19T11:03:11.417Z,11.20
2018-07-19T11:05:42.049Z,11.25
2018-07-19T11:08:12.992Z,12.25
2018-07-19T11:10:44.356Z,12.18
2018-07-19T11:13:14.795Z,12.58
2018-07-19T11:15:46.246Z,11.50
2018-07-19T11:18:16.137Z,11.45
2018-07-19T11:20:46.634Z,12.07
2018-07-19T11:23:15.742Z,11.70
2018-07-19T11:25:45.731Z,11.63
2018-07-19T11:28:15.845Z,10.95
2018-07-19T11:30:45.516Z,10.53
2018-07-19T11:33:16.256Z,11.20
2018-07-19T11:35:46.234Z,10.82
2018-07-19T11:38:16.276Z,10.70
2018-07-19T11:40:50.186Z,10.55
2018-07-19T11:43:19.948Z,11.12
2018-07-19T11:45:50.298Z,11.33
2018-07-19T11:48:20.386Z,10.15
2018-07-19T11:50:50.785Z,10.58
2018-07-19T11:53:20.798Z,9.18
2018-07-19T11:55:51.137Z,9.40
2018-07-19T11:58:21.263Z,8.88
2018-07-19T12:00:50.505Z,9.73
2018-07-19T12:03:20.865Z,10.10
2018-07-19T12:05:50.715Z,10.82
2018-07-19T12:08:20.745Z,9.60
2018-07-19T12:10:50.358Z,10.18
2018-07-19T12:13:19.761Z,9.10
2018-07-19T12:15:50.150Z,9.95
2018-07-19T12:18:20.413Z,10.05
2018-07-19T12:20:50.700Z,10.38
2018-07-19T12:23:21.478Z,9.20
2018-07-19T12:25:51.502Z,9.50
2018-07-19T12:28:27.753Z,9.93
2018-07-19T12:31:01.620Z,10.65
2018-07-19T12:33:32.380Z,11.15
2018-07-19T12:36:02.854Z,10.50
2018-07-19T12:38:33.315Z,9.45
2018-07-19T12:41:03.871Z,9.75
2018-07-19T12:43:34.211Z,11.33
2018-07-19T12:46:03.578Z,10.78
2018-07-19T12:48:34.236Z,10.72
2018-07-19T12:51:04.693Z,10.65
2018-07-19T12:53:35.014Z,11.30
2018-07-19T12:56:05.368Z,10.60
2018-07-19T12:58:35.505Z,9.88
2018-07-19T13:01:05.545Z,10.60
2018-07-19T13:03:35.325Z,10.65
2018-07-19T13:06:05.532Z,10.60
2018-07-19T13:08:35.868Z,10.88
2018-07-19T13:11:06.494Z,10.58
2018-07-19T13:13:37.659Z,10.72
2018-07-19T13:16:08.467Z,10.20
2018-07-19T13:18:38.439Z,10.53
2018-07-19T13:21:08.346Z,9.55
2018-07-19T13:23:38.135Z,10.82
2018-07-19T13:26:09.089Z,11.10
2018-07-19T13:28:38.797Z,10.05
2018-07-19T13:31:11.700Z,10.03
2018-07-19T13:33:42.284Z,10.50
2018-07-19T13:36:12.229Z,10.08
2018-07-19T13:38:42.607Z,9.83
2018-07-19T13:41:12.559Z,8.85
2018-07-19T13:43:42.660Z,9.83
2018-07-19T13:46:13.552Z,9.40
2018-07-19T13:48:43.352Z,9.50
2018-07-19T13:51:14.102Z,9.80
2018-07-19T13:53:56.032Z,9.05
2018-07-19T13:56:26.475Z,8.83
2018-07-19T13:58:56.574Z,9.43
2018-07-19T14:01:27.195Z,8.95
2018-07-19T14:03:57.446Z,8.93
2018-07-19T14:06:27.323Z,8.83
2018-07-19T14:08:57.882Z,9.20
2018-07-19T14:11:27.930Z,9.48
2018-07-19T14:13:58.462Z,9.65
2018-07-19T14:16:28.686Z,9.25
2018-07-19T14:18:58.982Z,8.85
2018-07-19T14:21:29.125Z,8.90
2018-07-19T14:23:59.248Z,9.05
2018-07-19T14:26:29.889Z,8.35
2018-07-19T14:28:59.229Z,8.45
2018-07-19T14:31:29.785Z,8.30
2018-07-19T14:34:00.298Z,8.93
2018-07-19T14:36:30.756Z,8.23
2018-07-19T14:39:01.121Z,9.00
2018-07-19T14:41:31.088Z,8.55
2018-07-19T14:44:01.359Z,8.85
2018-07-19T14:46:31.535Z,8.30
2018-07-19T14:49:01.701Z,8.10
2018-07-19T14:51:31.991Z,7.92
2018-07-19T14:54:01.935Z,8.13
2018-07-19T14:56:32.669Z,8.40
2018-07-19T14:59:02.447Z,8.65
2018-07-19T15:01:33.064Z,9.63
2018-07-19T15:04:03.304Z,8.73
2018-07-19T15:06:33.771Z,9.53
2018-07-19T15:09:03.905Z,9.00
2018-07-19T15:11:57.837Z,9.10
2018-07-19T15:14:27.832Z,8.85
2018-07-19T15:16:58.939Z,8.55
2018-07-19T15:19:29.394Z,8.55
2018-07-19T15:21:59.425Z,8.78
2018-07-19T15:24:29.620Z,8.80
2018-07-19T15:27:00.556Z,8.40
2018-07-19T15:29:30.970Z,8.25
2018-07-19T15:32:01.117Z,8.18
2018-07-19T15:34:31.409Z,8.55
2018-07-19T15:37:01.575Z,8.25
2018-07-19T15:39:32.112Z,9.05
2018-07-19T15:42:02.696Z,8.65
2018-07-19T15:44:33.620Z,9.28
2018-07-19T15:47:03.837Z,9.20
2018-07-19T15:49:34.033Z,8.70
2018-07-19T15:52:05.517Z,8.80
2018-07-19T15:54:36.139Z,9.25
2018-07-19T15:57:06.294Z,9.25
2018-07-19T15:59:36.819Z,9.25
